sensor_id;sensor_type;location;lat;lon;timestamp;temperature;humidity
5280;DHT22;2663;53.588;10.010;2022-08-04T00:01:43;23.80;99.40
5280;DHT22;2663;53.588;10.010;2022-08-04T00:07:25;23.90;98.90
5280;DHT22;2663;53.588;10.010;2022-08-04T00:10:13;23.90;98.90
5280;DHT22;2663;53.588;10.010;2022-08-04T00:12:46;24.00;98.80
5280;DHT22;2663;53.588;10.010;2022-08-04T00:15:14;24.00;98.70
5280;DHT22;2663;53.588;10.010;2022-08-04T00:17:47;24.00;98.50
5280;DHT22;2663;53.588;10.010;2022-08-04T00:20:17;24.10;98.40
5280;DHT22;2663;53.588;10.010;2022-08-04T00:22:46;24.00;98.60
5280;DHT22;2663;53.588;10.010;2022-08-04T00:25:14;24.00;98.40
5280;DHT22;2663;53.588;10.010;2022-08-04T00:27:40;23.80;98.90
5280;DHT22;2663;53.588;10.010;2022-08-04T00:30:07;23.70;98.90
5280;DHT22;2663;53.588;10.010;2022-08-04T00:32:34;23.70;99.60
5280;DHT22;2663;53.588;10.010;2022-08-04T00:35:02;23.70;99.40
5280;DHT22;2663;53.588;10.010;2022-08-04T00:37:28;23.80;99.20
5280;DHT22;2663;53.588;10.010;2022-08-04T00:39:56;23.80;99.00
5280;DHT22;2663;53.588;10.010;2022-08-04T00:45:40;23.80;98.80
5280;DHT22;2663;53.588;10.010;2022-08-04T00:51:55;23.90;98.80
5280;DHT22;2663;53.588;10.010;2022-08-04T01:00:12;23.80;98.80
5280;DHT22;2663;53.588;10.010;2022-08-04T01:02:51;23.80;98.80
5280;DHT22;2663;53.588;10.010;2022-08-04T01:05:48;23.80;98.60
5280;DHT22;2663;53.588;10.010;2022-08-04T01:08:33;23.80;98.70
5280;DHT22;2663;53.588;10.010;2022-08-04T01:11:12;23.80;98.60
5280;DHT22;2663;53.588;10.010;2022-08-04T01:14:14;23.80;98.50
5280;DHT22;2663;53.588;10.010;2022-08-04T01:16:51;23.80;98.70
5280;DHT22;2663;53.588;10.010;2022-08-04T01:19:37;23.70;98.90
5280;DHT22;2663;53.588;10.010;2022-08-04T01:25:15;23.70;98.70
5280;DHT22;2663;53.588;10.010;2022-08-04T01:30:34;23.70;98.40
5280;DHT22;2663;53.588;10.010;2022-08-04T01:33:03;23.70;98.60
5280;DHT22;2663;53.588;10.010;2022-08-04T01:35:55;23.70;98.50
5280;DHT22;2663;53.588;10.010;2022-08-04T01:38:28;23.60;98.60
5280;DHT22;2663;53.588;10.010;2022-08-04T01:40:59;23.60;98.70
5280;DHT22;2663;53.588;10.010;2022-08-04T01:43:27;23.50;98.30
5280;DHT22;2663;53.588;10.010;2022-08-04T01:45:59;23.50;98.90
5280;DHT22;2663;53.588;10.010;2022-08-04T01:48:27;23.50;98.80
5280;DHT22;2663;53.588;10.010;2022-08-04T01:51:03;23.50;98.90
5280;DHT22;2663;53.588;10.010;2022-08-04T01:53:33;23.40;98.90
5280;DHT22;2663;53.588;10.010;2022-08-04T01:56:01;23.40;99.00
5280;DHT22;2663;53.588;10.010;2022-08-04T01:58:30;23.40;98.90
5280;DHT22;2663;53.588;10.010;2022-08-04T02:01:00;23.40;99.00
5280;DHT22;2663;53.588;10.010;2022-08-04T02:03:35;23.40;99.00
5280;DHT22;2663;53.588;10.010;2022-08-04T02:11:47;23.40;98.90
5280;DHT22;2663;53.588;10.010;2022-08-04T02:17:10;23.40;98.90
5280;DHT22;2663;53.588;10.010;2022-08-04T02:20:00;23.50;99.00
5280;DHT22;2663;53.588;10.010;2022-08-04T02:22:30;23.40;99.00
5280;DHT22;2663;53.588;10.010;2022-08-04T02:25:08;23.30;99.00
5280;DHT22;2663;53.588;10.010;2022-08-04T02:27:55;23.30;99.10
5280;DHT22;2663;53.588;10.010;2022-08-04T02:30:33;23.30;99.00
5280;DHT22;2663;53.588;10.010;2022-08-04T02:33:03;23.30;99.10
5280;DHT22;2663;53.588;10.010;2022-08-04T02:35:35;23.20;99.00
5280;DHT22;2663;53.588;10.010;2022-08-04T02:38:11;23.20;99.00
5280;DHT22;2663;53.588;10.010;2022-08-04T02:40:42;23.20;99.10
5280;DHT22;2663;53.588;10.010;2022-08-04T02:43:09;23.10;99.20
5280;DHT22;2663;53.588;10.010;2022-08-04T02:45:40;23.10;99.10
5280;DHT22;2663;53.588;10.010;2022-08-04T02:48:09;23.10;99.30
5280;DHT22;2663;53.588;10.010;2022-08-04T02:50:57;23.10;99.30
5280;DHT22;2663;53.588;10.010;2022-08-04T02:53:26;23.00;99.30
5280;DHT22;2663;53.588;10.010;2022-08-04T02:55:55;22.90;99.30
5280;DHT22;2663;53.588;10.010;2022-08-04T02:58:25;23.00;99.50
5280;DHT22;2663;53.588;10.010;2022-08-04T03:00:57;23.00;99.40
5280;DHT22;2663;53.588;10.010;2022-08-04T03:09:15;22.90;99.50
5280;DHT22;2663;53.588;10.010;2022-08-04T03:12:04;22.80;99.60
5280;DHT22;2663;53.588;10.010;2022-08-04T03:20:31;22.80;99.50
5280;DHT22;2663;53.588;10.010;2022-08-04T03:26:04;22.70;99.60
5280;DHT22;2663;53.588;10.010;2022-08-04T03:29:21;22.80;99.70
5280;DHT22;2663;53.588;10.010;2022-08-04T03:38:14;22.60;99.90
5280;DHT22;2663;53.588;10.010;2022-08-04T03:44:23;22.70;99.80
5280;DHT22;2663;53.588;10.010;2022-08-04T03:46:59;22.70;99.90
5280;DHT22;2663;53.588;10.010;2022-08-04T04:01:34;22.60;99.90
5280;DHT22;2663;53.588;10.010;2022-08-04T04:16:48;22.70;99.90
5280;DHT22;2663;53.588;10.010;2022-08-04T04:18:51;22.70;99.70
5280;DHT22;2663;53.588;10.010;2022-08-04T04:21:24;22.70;99.80
5280;DHT22;2663;53.588;10.010;2022-08-04T04:24:05;22.70;99.70
5280;DHT22;2663;53.588;10.010;2022-08-04T04:26:48;22.80;99.70
5280;DHT22;2663;53.588;10.010;2022-08-04T04:32:45;22.80;99.70
5280;DHT22;2663;53.588;10.010;2022-08-04T04:47:30;22.90;99.60
5280;DHT22;2663;53.588;10.010;2022-08-04T04:53:28;22.90;99.50
5280;DHT22;2663;53.588;10.010;2022-08-04T04:56:24;23.00;99.50
5280;DHT22;2663;53.588;10.010;2022-08-04T04:58:54;22.20;99.50
5280;DHT22;2663;53.588;10.010;2022-08-04T05:04:24;23.00;99.40
5280;DHT22;2663;53.588;10.010;2022-08-04T05:10:00;23.20;99.40
5280;DHT22;2663;53.588;10.010;2022-08-04T05:15:43;23.30;99.10
5280;DHT22;2663;53.588;10.010;2022-08-04T05:18:15;23.40;99.00
5280;DHT22;2663;53.588;10.010;2022-08-04T05:20:50;23.40;99.00
5280;DHT22;2663;53.588;10.010;2022-08-04T05:23:26;23.50;98.90
5280;DHT22;2663;53.588;10.010;2022-08-04T05:26:06;23.50;98.70
5280;DHT22;2663;53.588;10.010;2022-08-04T05:28:39;23.50;98.80
5280;DHT22;2663;53.588;10.010;2022-08-04T05:31:17;23.50;99.00
5280;DHT22;2663;53.588;10.010;2022-08-04T05:33:56;23.60;98.80
5280;DHT22;2663;53.588;10.010;2022-08-04T05:36:29;23.70;98.80
5280;DHT22;2663;53.588;10.010;2022-08-04T05:39:10;23.80;98.60
5280;DHT22;2663;53.588;10.010;2022-08-04T05:41:39;23.90;98.60
5280;DHT22;2663;53.588;10.010;2022-08-04T05:44:13;24.00;98.20
5280;DHT22;2663;53.588;10.010;2022-08-04T05:46:42;24.20;97.90
5280;DHT22;2663;53.588;10.010;2022-08-04T05:49:11;24.30;97.70
5280;DHT22;2663;53.588;10.010;2022-08-04T05:51:46;24.40;97.30
5280;DHT22;2663;53.588;10.010;2022-08-04T05:54:15;24.50;97.30
5280;DHT22;2663;53.588;10.010;2022-08-04T05:56:44;24.60;97.10
5280;DHT22;2663;53.588;10.010;2022-08-04T05:59:11;24.60;97.00
5280;DHT22;2663;53.588;10.010;2022-08-04T06:01:39;24.70;96.90
5280;DHT22;2663;53.588;10.010;2022-08-04T06:04:27;24.70;96.70
5280;DHT22;2663;53.588;10.010;2022-08-04T06:06:56;24.80;96.70
5280;DHT22;2663;53.588;10.010;2022-08-04T06:09:23;24.90;96.50
5280;DHT22;2663;53.588;10.010;2022-08-04T06:11:51;24.90;96.30
5280;DHT22;2663;53.588;10.010;2022-08-04T06:14:34;25.00;96.20
5280;DHT22;2663;53.588;10.010;2022-08-04T06:17:04;25.10;96.00
5280;DHT22;2663;53.588;10.010;2022-08-04T06:19:52;25.00;96.00
5280;DHT22;2663;53.588;10.010;2022-08-04T06:22:41;25.10;96.10
5280;DHT22;2663;53.588;10.010;2022-08-04T06:25:10;25.10;96.10
5280;DHT22;2663;53.588;10.010;2022-08-04T06:27:37;25.00;96.20
5280;DHT22;2663;53.588;10.010;2022-08-04T06:30:06;25.10;96.20
5280;DHT22;2663;53.588;10.010;2022-08-04T06:32:35;25.10;96.00
5280;DHT22;2663;53.588;10.010;2022-08-04T06:35:14;25.20;95.90
5280;DHT22;2663;53.588;10.010;2022-08-04T06:37:42;25.30;95.90
5280;DHT22;2663;53.588;10.010;2022-08-04T06:40:12;25.30;95.70
5280;DHT22;2663;53.588;10.010;2022-08-04T06:43:00;25.30;95.70
5280;DHT22;2663;53.588;10.010;2022-08-04T06:45:27;25.30;95.60
5280;DHT22;2663;53.588;10.010;2022-08-04T06:47:55;25.40;95.60
5280;DHT22;2663;53.588;10.010;2022-08-04T06:50:23;25.50;95.50
5280;DHT22;2663;53.588;10.010;2022-08-04T06:53:10;25.60;95.50
5280;DHT22;2663;53.588;10.010;2022-08-04T06:55:38;25.70;95.40
5280;DHT22;2663;53.588;10.010;2022-08-04T06:58:06;25.80;95.20
5280;DHT22;2663;53.588;10.010;2022-08-04T07:00:35;25.80;95.20
5280;DHT22;2663;53.588;10.010;2022-08-04T07:03:02;25.90;94.80
5280;DHT22;2663;53.588;10.010;2022-08-04T07:05:30;25.90;94.90
5280;DHT22;2663;53.588;10.010;2022-08-04T07:07:58;25.90;95.10
5280;DHT22;2663;53.588;10.010;2022-08-04T07:10:29;26.00;94.90
5280;DHT22;2663;53.588;10.010;2022-08-04T07:12:59;26.00;94.70
5280;DHT22;2663;53.588;10.010;2022-08-04T07:15:27;26.10;94.40
5280;DHT22;2663;53.588;10.010;2022-08-04T07:17:54;26.20;94.80
5280;DHT22;2663;53.588;10.010;2022-08-04T07:20:28;26.30;94.30
5280;DHT22;2663;53.588;10.010;2022-08-04T07:23:05;26.50;94.20
5280;DHT22;2663;53.588;10.010;2022-08-04T07:25:34;26.60;94.00
5280;DHT22;2663;53.588;10.010;2022-08-04T07:28:24;26.70;93.90
5280;DHT22;2663;53.588;10.010;2022-08-04T07:30:53;26.80;93.70
5280;DHT22;2663;53.588;10.010;2022-08-04T07:33:20;26.80;93.50
5280;DHT22;2663;53.588;10.010;2022-08-04T07:35:50;26.90;93.50
5280;DHT22;2663;53.588;10.010;2022-08-04T07:38:41;27.00;93.50
5280;DHT22;2663;53.588;10.010;2022-08-04T07:41:21;27.10;93.30
5280;DHT22;2663;53.588;10.010;2022-08-04T07:44:04;27.10;93.40
5280;DHT22;2663;53.588;10.010;2022-08-04T07:46:32;27.20;93.20
5280;DHT22;2663;53.588;10.010;2022-08-04T07:48:59;27.30;93.00
5280;DHT22;2663;53.588;10.010;2022-08-04T07:51:27;27.40;93.00
5280;DHT22;2663;53.588;10.010;2022-08-04T07:53:56;27.50;92.90
5280;DHT22;2663;53.588;10.010;2022-08-04T07:56:25;27.60;92.90
5280;DHT22;2663;53.588;10.010;2022-08-04T07:58:52;27.70;92.70
5280;DHT22;2663;53.588;10.010;2022-08-04T08:01:19;27.70;92.50
5280;DHT22;2663;53.588;10.010;2022-08-04T08:03:47;27.80;92.40
5280;DHT22;2663;53.588;10.010;2022-08-04T08:06:14;28.00;92.50
5280;DHT22;2663;53.588;10.010;2022-08-04T08:08:57;28.10;92.20
5280;DHT22;2663;53.588;10.010;2022-08-04T08:11:38;28.20;91.90
5280;DHT22;2663;53.588;10.010;2022-08-04T08:14:26;28.20;91.60
5280;DHT22;2663;53.588;10.010;2022-08-04T08:16:53;28.30;91.80
5280;DHT22;2663;53.588;10.010;2022-08-04T08:19:20;28.40;91.70
5280;DHT22;2663;53.588;10.010;2022-08-04T08:21:47;28.50;91.50
5280;DHT22;2663;53.588;10.010;2022-08-04T08:24:26;28.70;91.40
5280;DHT22;2663;53.588;10.010;2022-08-04T08:26:53;28.80;90.90
5280;DHT22;2663;53.588;10.010;2022-08-04T08:29:22;28.90;90.40
5280;DHT22;2663;53.588;10.010;2022-08-04T08:31:50;29.00;90.10
5280;DHT22;2663;53.588;10.010;2022-08-04T08:34:28;29.20;89.60
5280;DHT22;2663;53.588;10.010;2022-08-04T08:37:29;29.30;89.10
5280;DHT22;2663;53.588;10.010;2022-08-04T08:56:10;29.80;86.70
5280;DHT22;2663;53.588;10.010;2022-08-04T09:05:06;30.00;85.10
5280;DHT22;2663;53.588;10.010;2022-08-04T09:07:45;30.20;84.90
5280;DHT22;2663;53.588;10.010;2022-08-04T09:10:25;30.40;84.90
5280;DHT22;2663;53.588;10.010;2022-08-04T09:13:05;30.60;84.80
5280;DHT22;2663;53.588;10.010;2022-08-04T09:18:35;30.70;83.00
5280;DHT22;2663;53.588;10.010;2022-08-04T09:21:23;30.80;83.00
5280;DHT22;2663;53.588;10.010;2022-08-04T09:27:02;31.00;82.30
5280;DHT22;2663;53.588;10.010;2022-08-04T09:30:06;31.10;81.20
5280;DHT22;2663;53.588;10.010;2022-08-04T09:32:43;31.20;80.80
5280;DHT22;2663;53.588;10.010;2022-08-04T09:35:32;31.30;79.20
5280;DHT22;2663;53.588;10.010;2022-08-04T09:38:09;31.30;79.10
5280;DHT22;2663;53.588;10.010;2022-08-04T09:40:56;31.40;79.20
5280;DHT22;2663;53.588;10.010;2022-08-04T09:43:53;31.50;79.00
5280;DHT22;2663;53.588;10.010;2022-08-04T09:46:48;31.60;78.20
5280;DHT22;2663;53.588;10.010;2022-08-04T09:49:26;31.50;76.80
5280;DHT22;2663;53.588;10.010;2022-08-04T09:54:50;31.70;75.50
5280;DHT22;2663;53.588;10.010;2022-08-04T10:00:07;31.90;74.90
5280;DHT22;2663;53.588;10.010;2022-08-04T10:02:40;32.00;74.80
5280;DHT22;2663;53.588;10.010;2022-08-04T10:05:13;32.00;74.60
5280;DHT22;2663;53.588;10.010;2022-08-04T10:11:08;32.00;75.50
5280;DHT22;2663;53.588;10.010;2022-08-04T10:13:48;32.10;74.70
5280;DHT22;2663;53.588;10.010;2022-08-04T10:22:30;32.40;75.40
5280;DHT22;2663;53.588;10.010;2022-08-04T10:28:23;32.40;75.80
5280;DHT22;2663;53.588;10.010;2022-08-04T10:30:56;32.50;75.10
5280;DHT22;2663;53.588;10.010;2022-08-04T10:33:29;32.50;74.70
5280;DHT22;2663;53.588;10.010;2022-08-04T10:36:02;32.60;75.30
5280;DHT22;2663;53.588;10.010;2022-08-04T10:38:37;32.50;75.20
5280;DHT22;2663;53.588;10.010;2022-08-04T10:47:17;32.20;75.70
5280;DHT22;2663;53.588;10.010;2022-08-04T10:49:52;32.40;75.00
5280;DHT22;2663;53.588;10.010;2022-08-04T10:52:37;32.50;74.30
5280;DHT22;2663;53.588;10.010;2022-08-04T10:55:18;32.50;73.90
5280;DHT22;2663;53.588;10.010;2022-08-04T10:57:51;32.60;73.90
5280;DHT22;2663;53.588;10.010;2022-08-04T11:00:24;32.70;73.30
5280;DHT22;2663;53.588;10.010;2022-08-04T11:02:52;32.80;71.70
5280;DHT22;2663;53.588;10.010;2022-08-04T11:05:37;32.80;71.30
5280;DHT22;2663;53.588;10.010;2022-08-04T11:08:31;32.90;70.60
5280;DHT22;2663;53.588;10.010;2022-08-04T11:11:21;32.90;70.00
5280;DHT22;2663;53.588;10.010;2022-08-04T11:14:02;32.90;69.50
5280;DHT22;2663;53.588;10.010;2022-08-04T11:16:52;33.00;68.20
5280;DHT22;2663;53.588;10.010;2022-08-04T11:19:33;33.10;66.90
5280;DHT22;2663;53.588;10.010;2022-08-04T11:22:23;33.20;67.80
5280;DHT22;2663;53.588;10.010;2022-08-04T11:25:18;33.10;67.60
5280;DHT22;2663;53.588;10.010;2022-08-04T11:28:03;33.10;67.80
5280;DHT22;2663;53.588;10.010;2022-08-04T11:30:43;33.00;67.80
5280;DHT22;2663;53.588;10.010;2022-08-04T11:35:46;33.10;66.10
5280;DHT22;2663;53.588;10.010;2022-08-04T11:41:11;33.30;65.70
5280;DHT22;2663;53.588;10.010;2022-08-04T11:43:44;33.50;65.00
5280;DHT22;2663;53.588;10.010;2022-08-04T11:47:02;33.60;64.00
5280;DHT22;2663;53.588;10.010;2022-08-04T11:49:36;33.50;64.40
5280;DHT22;2663;53.588;10.010;2022-08-04T11:52:25;33.60;64.50
5280;DHT22;2663;53.588;10.010;2022-08-04T11:54:54;33.70;64.30
5280;DHT22;2663;53.588;10.010;2022-08-04T11:57:22;34.00;64.30
5280;DHT22;2663;53.588;10.010;2022-08-04T12:00:07;34.10;64.20
5280;DHT22;2663;53.588;10.010;2022-08-04T12:05:20;34.00;62.10
5280;DHT22;2663;53.588;10.010;2022-08-04T12:14:17;33.50;59.60
5280;DHT22;2663;53.588;10.010;2022-08-04T12:17:00;33.50;59.30
5280;DHT22;2663;53.588;10.010;2022-08-04T12:19:50;33.60;59.00
5280;DHT22;2663;53.588;10.010;2022-08-04T12:22:44;33.60;58.90
5280;DHT22;2663;53.588;10.010;2022-08-04T12:25:17;33.50;59.50
5280;DHT22;2663;53.588;10.010;2022-08-04T12:27:54;33.50;59.70
5280;DHT22;2663;53.588;10.010;2022-08-04T12:30:23;33.70;59.70
5280;DHT22;2663;53.588;10.010;2022-08-04T12:33:19;33.80;59.30
5280;DHT22;2663;53.588;10.010;2022-08-04T12:35:52;33.90;58.70
5280;DHT22;2663;53.588;10.010;2022-08-04T12:38:46;33.90;59.10
5280;DHT22;2663;53.588;10.010;2022-08-04T12:41:20;33.90;58.70
5280;DHT22;2663;53.588;10.010;2022-08-04T12:43:48;33.80;58.20
5280;DHT22;2663;53.588;10.010;2022-08-04T12:46:24;33.90;58.70
5280;DHT22;2663;53.588;10.010;2022-08-04T12:48:51;34.00;58.80
5280;DHT22;2663;53.588;10.010;2022-08-04T12:51:25;34.10;59.20
5280;DHT22;2663;53.588;10.010;2022-08-04T12:54:22;34.20;58.20
5280;DHT22;2663;53.588;10.010;2022-08-04T12:56:57;34.40;58.20
5280;DHT22;2663;53.588;10.010;2022-08-04T12:59:24;34.50;57.20
5280;DHT22;2663;53.588;10.010;2022-08-04T13:01:51;34.50;57.80
5280;DHT22;2663;53.588;10.010;2022-08-04T13:04:37;34.50;57.00
5280;DHT22;2663;53.588;10.010;2022-08-04T13:07:22;34.40;57.80
5280;DHT22;2663;53.588;10.010;2022-08-04T13:09:51;34.40;58.20
5280;DHT22;2663;53.588;10.010;2022-08-04T13:12:22;34.30;57.50
5280;DHT22;2663;53.588;10.010;2022-08-04T13:15:07;34.00;57.10
5280;DHT22;2663;53.588;10.010;2022-08-04T13:17:57;33.70;57.30
5280;DHT22;2663;53.588;10.010;2022-08-04T13:20:37;33.70;57.80
5280;DHT22;2663;53.588;10.010;2022-08-04T13:25:43;33.60;58.10
5280;DHT22;2663;53.588;10.010;2022-08-04T13:28:32;33.60;58.50
5280;DHT22;2663;53.588;10.010;2022-08-04T13:31:01;33.60;58.50
5280;DHT22;2663;53.588;10.010;2022-08-04T13:33:37;33.50;58.30
5280;DHT22;2663;53.588;10.010;2022-08-04T13:36:05;33.60;58.10
5280;DHT22;2663;53.588;10.010;2022-08-04T13:38:34;33.80;57.90
5280;DHT22;2663;53.588;10.010;2022-08-04T13:41:04;33.70;57.70
5280;DHT22;2663;53.588;10.010;2022-08-04T13:43:46;32.50;56.90
5280;DHT22;2663;53.588;10.010;2022-08-04T13:46:38;33.50;58.30
5280;DHT22;2663;53.588;10.010;2022-08-04T13:49:17;33.70;58.40
5280;DHT22;2663;53.588;10.010;2022-08-04T13:52:06;33.80;58.50
5280;DHT22;2663;53.588;10.010;2022-08-04T13:54:41;33.70;58.30
5280;DHT22;2663;53.588;10.010;2022-08-04T13:57:16;33.70;59.20
5280;DHT22;2663;53.588;10.010;2022-08-04T13:59:49;33.60;57.50
5280;DHT22;2663;53.588;10.010;2022-08-04T14:03:12;33.80;57.40
5280;DHT22;2663;53.588;10.010;2022-08-04T14:05:27;34.20;57.90
5280;DHT22;2663;53.588;10.010;2022-08-04T14:08:13;34.50;57.40
5280;DHT22;2663;53.588;10.010;2022-08-04T14:10:40;34.50;57.10
5280;DHT22;2663;53.588;10.010;2022-08-04T14:13:07;34.60;57.60
5280;DHT22;2663;53.588;10.010;2022-08-04T14:15:38;34.80;57.50
5280;DHT22;2663;53.588;10.010;2022-08-04T14:18:28;35.00;57.40
5280;DHT22;2663;53.588;10.010;2022-08-04T14:23:39;35.40;56.20
5280;DHT22;2663;53.588;10.010;2022-08-04T14:26:19;35.40;56.70
5280;DHT22;2663;53.588;10.010;2022-08-04T14:29:12;36.10;56.90
5280;DHT22;2663;53.588;10.010;2022-08-04T14:31:59;35.30;55.80
5280;DHT22;2663;53.588;10.010;2022-08-04T14:34:29;35.30;55.90
5280;DHT22;2663;53.588;10.010;2022-08-04T14:36:56;35.40;56.20
5280;DHT22;2663;53.588;10.010;2022-08-04T14:39:53;35.60;56.00
5280;DHT22;2663;53.588;10.010;2022-08-04T14:42:42;35.20;55.60
5280;DHT22;2663;53.588;10.010;2022-08-04T14:45:09;34.90;56.00
5280;DHT22;2663;53.588;10.010;2022-08-04T14:47:42;34.70;56.50
5280;DHT22;2663;53.588;10.010;2022-08-04T14:50:19;34.60;57.10
5280;DHT22;2663;53.588;10.010;2022-08-04T14:52:46;34.30;60.80
5280;DHT22;2663;53.588;10.010;2022-08-04T14:55:21;33.80;63.80
5280;DHT22;2663;53.588;10.010;2022-08-04T14:57:49;33.30;65.80
5280;DHT22;2663;53.588;10.010;2022-08-04T15:00:36;32.90;68.50
5280;DHT22;2663;53.588;10.010;2022-08-04T15:03:07;32.30;71.50
5280;DHT22;2663;53.588;10.010;2022-08-04T15:05:41;31.80;74.40
5280;DHT22;2663;53.588;10.010;2022-08-04T15:08:28;31.40;76.70
5280;DHT22;2663;53.588;10.010;2022-08-04T15:11:00;31.10;78.50
5280;DHT22;2663;53.588;10.010;2022-08-04T15:13:32;30.80;80.90
5280;DHT22;2663;53.588;10.010;2022-08-04T15:16:00;30.40;82.10
5280;DHT22;2663;53.588;10.010;2022-08-04T15:18:37;30.20;82.20
5280;DHT22;2663;53.588;10.010;2022-08-04T15:21:05;30.00;82.20
5280;DHT22;2663;53.588;10.010;2022-08-04T15:23:33;29.80;83.20
5280;DHT22;2663;53.588;10.010;2022-08-04T15:26:08;29.60;83.50
5280;DHT22;2663;53.588;10.010;2022-08-04T15:28:36;29.30;83.50
5280;DHT22;2663;53.588;10.010;2022-08-04T15:31:04;29.20;83.60
5280;DHT22;2663;53.588;10.010;2022-08-04T15:33:56;29.00;82.80
5280;DHT22;2663;53.588;10.010;2022-08-04T15:36:35;28.80;82.60
5280;DHT22;2663;53.588;10.010;2022-08-04T15:39:33;28.80;83.20
5280;DHT22;2663;53.588;10.010;2022-08-04T15:42:30;28.70;83.30
5280;DHT22;2663;53.588;10.010;2022-08-04T15:45:02;28.50;83.50
5280;DHT22;2663;53.588;10.010;2022-08-04T15:47:29;28.40;83.40
5280;DHT22;2663;53.588;10.010;2022-08-04T15:50:11;28.10;83.90
5280;DHT22;2663;53.588;10.010;2022-08-04T15:55:39;27.60;85.30
5280;DHT22;2663;53.588;10.010;2022-08-04T15:58:09;27.30;86.00
5280;DHT22;2663;53.588;10.010;2022-08-04T16:19:04;24.80;92.60
5280;DHT22;2663;53.588;10.010;2022-08-04T16:21:33;25.00;93.20
5280;DHT22;2663;53.588;10.010;2022-08-04T16:24:18;25.20;93.90
5280;DHT22;2663;53.588;10.010;2022-08-04T16:26:52;25.30;93.80
5280;DHT22;2663;53.588;10.010;2022-08-04T16:34:31;25.40;93.40
5280;DHT22;2663;53.588;10.010;2022-08-04T16:37:17;25.40;93.40
5280;DHT22;2663;53.588;10.010;2022-08-04T16:39:45;25.40;94.20
5280;DHT22;2663;53.588;10.010;2022-08-04T16:50:17;24.80;96.10
5280;DHT22;2663;53.588;10.010;2022-08-04T16:52:50;24.90;95.90
5280;DHT22;2663;53.588;10.010;2022-08-04T16:55:19;24.80;95.50
5280;DHT22;2663;53.588;10.010;2022-08-04T16:57:46;24.90;95.40
5280;DHT22;2663;53.588;10.010;2022-08-04T17:00:13;25.00;95.50
5280;DHT22;2663;53.588;10.010;2022-08-04T17:02:42;25.10;94.90
5280;DHT22;2663;53.588;10.010;2022-08-04T17:05:23;25.10;95.00
5280;DHT22;2663;53.588;10.010;2022-08-04T17:08:08;24.90;95.60
5280;DHT22;2663;53.588;10.010;2022-08-04T17:10:55;25.20;95.60
5280;DHT22;2663;53.588;10.010;2022-08-04T17:13:34;25.10;95.70
5280;DHT22;2663;53.588;10.010;2022-08-04T17:16:20;25.10;95.30
5280;DHT22;2663;53.588;10.010;2022-08-04T17:18:51;25.00;95.80
5280;DHT22;2663;53.588;10.010;2022-08-04T17:21:29;24.90;95.70
5280;DHT22;2663;53.588;10.010;2022-08-04T17:23:59;24.80;95.90
5280;DHT22;2663;53.588;10.010;2022-08-04T17:26:44;25.00;95.50
5280;DHT22;2663;53.588;10.010;2022-08-04T17:29:22;25.20;95.60
5280;DHT22;2663;53.588;10.010;2022-08-04T17:32:15;25.30;94.80
5280;DHT22;2663;53.588;10.010;2022-08-04T17:34:45;25.40;95.00
5280;DHT22;2663;53.588;10.010;2022-08-04T17:37:14;25.60;94.80
5280;DHT22;2663;53.588;10.010;2022-08-04T17:40:09;25.70;94.40
5280;DHT22;2663;53.588;10.010;2022-08-04T17:42:37;25.70;94.60
5280;DHT22;2663;53.588;10.010;2022-08-04T17:45:07;25.40;94.70
5280;DHT22;2663;53.588;10.010;2022-08-04T17:47:54;25.10;95.80
5280;DHT22;2663;53.588;10.010;2022-08-04T17:50:25;25.10;95.90
5280;DHT22;2663;53.588;10.010;2022-08-04T17:53:01;25.00;96.30
5280;DHT22;2663;53.588;10.010;2022-08-04T17:55:46;25.10;96.70
5280;DHT22;2663;53.588;10.010;2022-08-04T17:58:16;25.20;95.90
5280;DHT22;2663;53.588;10.010;2022-08-04T18:01:10;25.20;95.60
5280;DHT22;2663;53.588;10.010;2022-08-04T18:03:50;25.10;96.20
5280;DHT22;2663;53.588;10.010;2022-08-04T18:06:21;25.10;96.00
5280;DHT22;2663;53.588;10.010;2022-08-04T18:08:53;25.00;96.20
5280;DHT22;2663;53.588;10.010;2022-08-04T18:11:25;25.10;96.20
5280;DHT22;2663;53.588;10.010;2022-08-04T18:14:07;25.00;96.00
5280;DHT22;2663;53.588;10.010;2022-08-04T18:16:44;25.10;96.30
5280;DHT22;2663;53.588;10.010;2022-08-04T18:19:14;25.20;96.00
5280;DHT22;2663;53.588;10.010;2022-08-04T18:21:45;25.10;95.80
5280;DHT22;2663;53.588;10.010;2022-08-04T18:24:28;25.00;95.70
5280;DHT22;2663;53.588;10.010;2022-08-04T18:27:16;24.90;95.50
5280;DHT22;2663;53.588;10.010;2022-08-04T18:29:43;24.90;96.30
5280;DHT22;2663;53.588;10.010;2022-08-04T18:32:30;25.00;96.10
5280;DHT22;2663;53.588;10.010;2022-08-04T18:34:59;25.10;96.20
5280;DHT22;2663;53.588;10.010;2022-08-04T18:37:47;25.20;95.90
5280;DHT22;2663;53.588;10.010;2022-08-04T18:40:36;25.10;95.70
5280;DHT22;2663;53.588;10.010;2022-08-04T18:43:18;25.10;95.40
5280;DHT22;2663;53.588;10.010;2022-08-04T18:45:56;25.10;95.70
5280;DHT22;2663;53.588;10.010;2022-08-04T18:48:25;25.10;95.50
5280;DHT22;2663;53.588;10.010;2022-08-04T18:51:03;24.90;96.10
5280;DHT22;2663;53.588;10.010;2022-08-04T18:53:49;24.90;95.90
5280;DHT22;2663;53.588;10.010;2022-08-04T18:56:25;24.80;95.80
5280;DHT22;2663;53.588;10.010;2022-08-04T18:59:01;24.80;95.90
5280;DHT22;2663;53.588;10.010;2022-08-04T19:01:30;24.80;95.60
5280;DHT22;2663;53.588;10.010;2022-08-04T19:04:17;24.60;95.90
5280;DHT22;2663;53.588;10.010;2022-08-04T19:07:05;24.40;96.20
5280;DHT22;2663;53.588;10.010;2022-08-04T19:09:52;24.40;96.70
5280;DHT22;2663;53.588;10.010;2022-08-04T19:12:25;24.50;96.40
5280;DHT22;2663;53.588;10.010;2022-08-04T19:14:55;24.60;95.70
5280;DHT22;2663;53.588;10.010;2022-08-04T19:17:24;24.40;96.30
5280;DHT22;2663;53.588;10.010;2022-08-04T19:20:11;24.30;96.60
5280;DHT22;2663;53.588;10.010;2022-08-04T19:22:49;24.30;96.70
5280;DHT22;2663;53.588;10.010;2022-08-04T19:25:36;24.20;96.90
5280;DHT22;2663;53.588;10.010;2022-08-04T19:28:25;24.10;96.90
5280;DHT22;2663;53.588;10.010;2022-08-04T19:30:56;24.00;96.80
5280;DHT22;2663;53.588;10.010;2022-08-04T19:33:23;24.10;96.80
5280;DHT22;2663;53.588;10.010;2022-08-04T19:35:51;24.00;96.50
5280;DHT22;2663;53.588;10.010;2022-08-04T19:38:18;24.00;97.10
5280;DHT22;2663;53.588;10.010;2022-08-04T19:40:46;23.90;96.90
5280;DHT22;2663;53.588;10.010;2022-08-04T19:43:18;24.00;96.70
5280;DHT22;2663;53.588;10.010;2022-08-04T19:45:49;24.00;96.60
5280;DHT22;2663;53.588;10.010;2022-08-04T19:48:17;23.80;96.30
5280;DHT22;2663;53.588;10.010;2022-08-04T19:50:47;23.70;96.70
5280;DHT22;2663;53.588;10.010;2022-08-04T19:53:15;23.70;96.70
5280;DHT22;2663;53.588;10.010;2022-08-04T19:55:46;23.80;96.80
5280;DHT22;2663;53.588;10.010;2022-08-04T19:58:33;23.70;96.40
5280;DHT22;2663;53.588;10.010;2022-08-04T20:00:59;23.70;96.50
5280;DHT22;2663;53.588;10.010;2022-08-04T20:03:26;23.60;96.50
5280;DHT22;2663;53.588;10.010;2022-08-04T20:06:13;23.60;96.90
5280;DHT22;2663;53.588;10.010;2022-08-04T20:08:39;23.70;96.70
5280;DHT22;2663;53.588;10.010;2022-08-04T20:11:14;23.70;96.60
5280;DHT22;2663;53.588;10.010;2022-08-04T20:13:42;23.70;96.80
5280;DHT22;2663;53.588;10.010;2022-08-04T20:16:19;23.70;97.10